Terminal Aerodrome Forecast
Issued by NWS

Home | Current Version | Previous Version | Text Only | Print | Product List | Glossary On
Versions: 1 2 3 4 5 6 7 8 9 10 11 12 13
000
FTUS44 KMAF 280521
TAFPEQ
TAF
KPEQ 280521Z 2806/0106 25004KT P6SM BKN250
     FM281800 25020G30KT P6SM SCT150 BKN250
     FM010200 27010KT P6SM SCT250=

USA.gov is the U.S. government's official web portal to all federal, state and local government web resources and services.